Flight Track Log - Related Links

Times and Time Zones

All times are in EDT time to prevent confusion due to time zone crossing. See the N53NW flight status page for this flight to view local times or setup timezone preferences in your user account.

Time Position Orientation Groundspeed Altitude Reporting Facility
EDT Latitude Longitude Course Direction KTS MPH feet Rate Location/Type
Sun 02:27:57 PM 26.9625 -82.1814 14° North 289 333 4,000  Level Miami Center
Sun 02:28:57 PM 26.9697 -82.0956 85° East 295 339 6,400 2,450 Climbing Miami Center
Sun 02:29:57 PM 27.0181 -82.0322 49° Northeast 266 306 8,900 1,300 Climbing Miami Center
Sun 02:30:57 PM 27.0828 -81.9747 38° Northeast 266 306 9,000 200 Climbing Miami Center
Sun 02:31:57 PM 27.1492 -81.9217 35° Northeast 277 319 9,300 4,000 Climbing Miami Center
Sun 02:33:00 PM 27.5569 -82.0497 14° North  Level Estimated
Sun 02:33:57 PM 27.2956 -81.8556 22° Northeast 277 319 21,000  Level Miami Center
Sun 02:34:57 PM 27.3803 -81.8217 20° North 352 405 17,700 -500 Descending Miami Center
Sun 02:35:57 PM 27.4522 -81.7897 22° Northeast 317 365 20,000 1,650 Climbing Miami Center
Sun 02:36:57 PM 27.5411 -81.7539 20° North 317 365 21,000 500 Climbing Miami Center
Sun 02:37:57 PM 27.6511 -81.7094 20° North 362 417 21,000  Level Miami Center
Sun 02:38:57 PM 27.7506 -81.6689 20° North 375 432 21,000  Level Miami Center
Sun 02:39:57 PM 27.8417 -81.6283 21° North 375 432 21,000  Level Miami Center
Sun 02:40:57 PM 27.9389 -81.5878 20° North 375 432 21,000  Level Miami Center
Sun 02:41:57 PM 28.0386 -81.5447 21° North 375 432 21,000  Level Miami Center
Sun 02:42:57 PM 28.1358 -81.5064 19° North 375 432 21,000  Level Miami Center
Sun 02:44:04 PM 28.2567 -81.4528 21° North 376 433 21,000  Level Jacksonville Center
Sun 02:45:04 PM 28.3583 -81.4158 18° North 381 438 21,000 -500 Level Jacksonville Center
Sun 02:46:04 PM 28.4378 -81.4219 356° North 371 427 20,000 -1,200 Descending Jacksonville Center
Sun 02:47:04 PM 28.5444 -81.4439 350° North 352 405 18,600 -1,350 Descending Jacksonville Center
Sun 02:48:04 PM 28.6364 -81.4450 359° North 342 394 17,300 -800 Descending Jacksonville Center
Sun 02:49:04 PM 28.7344 -81.4364 North 337 388 17,000 -150 Descending Jacksonville Center
Sun 02:50:04 PM 28.8303 -81.4281 North 343 395 17,000  Level Jacksonville Center
Sun 02:51:04 PM 28.9283 -81.4217 North 349 402 17,000 66 Level Jacksonville Center
Sun 02:51:35 PM 28.9844 -81.4161 North 350 403 17,100 -100 Climbing Jacksonville Center
Sun 02:52:04 PM 29.0261 -81.4108 North 349 402 16,900 -809 Descending Jacksonville Center
Sun 02:53:04 PM 29.1200 -81.3856 13° North 349 402 15,900 -1,350 Descending Jacksonville Center
Sun 02:54:04 PM 29.2094 -81.3700 North 344 396 14,200 -2,311 Descending Jacksonville Center
Sun 02:55:19 PM 29.3222 -81.3683 North 278 320 10,700 -2,500 Descending Jacksonville Center
Sun 02:56:04 PM 29.3700 -81.3603 North 292 336 9,200 -2,459 Descending Jacksonville Center
Sun 02:56:20 PM 29.3994 -81.3622 357° North 276 318 8,200 -2,500 Descending Jacksonville Center
Sun 02:57:04 PM 29.4453 -81.3639 358° North 275 316 6,700 -2,557 Descending Jacksonville Center
Sun 02:57:21 PM 29.4767 -81.3633 North 276 318 5,600 -1,477 Descending Jacksonville Center
Sun 02:58:09 PM 29.5369 -81.3578 North 266 306 5,100 -932 Descending Jacksonville Center
Sun 02:59:04 PM 29.5933 -81.3569 North 263 303 4,000 -1,148 Descending Jacksonville Center
Sun 03:00:04 PM 29.6644 -81.3558 North 263 303 2,900 -550 Descending Jacksonville Center
Sun 03:01:04 PM 29.7353 -81.3522 North 258 297 2,900 80 Level Jacksonville Center
Sun 03:01:19 PM 29.7603 -81.3494 North 245 282 3,000 -395 Climbing Jacksonville Center
Sun 03:02:20 PM 29.8269 -81.3292 15° North 234 269 2,400 -590 Descending Jacksonville Center
Sun 03:03:21 PM 29.8703 -81.3022 28° Northeast 168 193 1,800 -516 Descending Jacksonville Center
Sun 03:04:28 PM 29.9139 -81.2869 17° North 131 151 1,300 -472 Descending Jacksonville Center
Sun 03:05:28 PM 29.9394 -81.3178 314° West 132 152 800 -500 Descending Jacksonville Center

Login

Don't have an account? Register now (free) for customized features, flight alerts, and more!